Time;durP1;ratioP1;P1;durP2;ratioP2;P2;SDS_P1;SDS_P2;PMS_P1;PMS_P2;Temp;Humidity;BMP_temperature;BMP_pressure;BME280_temperature;BME280_humidity;BME280_pressure;Samples;Min_cycle;Max_cycle;Signal;HPM_P1;HPM_P2
2023/07/28 00:01:50;;;;;;;0.10;0.10;;;;;;;18.60;54.38;101192.78;4997283;28;20036;-86
2023/07/28 00:04:15;;;;;;;0.10;0.10;;;;;;;18.63;54.20;101187.31;4997246;28;20475;-86
2023/07/28 00:06:41;;;;;;;0.10;0.10;;;;;;;18.51;54.89;101190.84;5013178;28;20021;-88
2023/07/28 00:09:06;;;;;;;0.10;0.10;;;;;;;18.50;54.71;101184.78;5013453;28;20029;-86
2023/07/28 00:11:32;;;;;;;0.10;0.10;;;;;;;18.52;54.45;101180.25;4997046;28;20029;-88
2023/07/28 00:13:57;;;;;;;0.10;0.10;;;;;;;18.51;54.73;101173.34;5013439;28;20461;-86
2023/07/28 00:16:23;;;;;;;0.10;0.10;;;;;;;18.45;54.67;101192.13;5013144;28;20036;-86
2023/07/28 00:18:48;;;;;;;0.10;0.10;;;;;;;18.39;54.85;101183.88;5013564;28;20046;-86
2023/07/28 00:21:13;;;;;;;0.10;0.10;;;;;;;18.39;54.74;101176.84;4996645;28;20037;-88
2023/07/28 00:23:39;;;;;;;0.10;0.10;;;;;;;18.31;54.55;101160.88;5013402;28;20029;-86
2023/07/28 00:26:04;;;;;;;0.10;0.10;;;;;;;18.42;54.55;101184.50;4996897;28;20029;-87
2023/07/28 00:28:30;;;;;;;0.10;0.10;;;;;;;18.23;55.09;101163.19;4996838;28;20498;-86
2023/07/28 00:30:55;;;;;;;0.10;0.10;;;;;;;18.31;55.40;101176.56;5013086;28;20033;-86
2023/07/28 00:33:21;;;;;;;0.10;0.10;;;;;;;18.35;54.68;101180.63;5012966;28;20034;-87
2023/07/28 00:35:46;;;;;;;0.10;0.10;;;;;;;18.29;55.27;101183.72;5012949;28;20021;-87
2023/07/28 00:38:12;;;;;;;0.10;0.10;;;;;;;18.29;54.96;101176.69;5030763;28;20033;-87
2023/07/28 00:40:37;;;;;;;0.10;0.10;;;;;;;18.16;54.96;101159.34;5012892;28;20030;-87
2023/07/28 00:43:02;;;;;;;0.10;0.10;;;;;;;18.11;55.64;101164.91;5013062;28;20033;-86
2023/07/28 00:45:29;;;;;;;0.10;0.10;;;;;;;18.21;55.68;101179.03;5013126;28;20179;-87
2023/07/28 00:47:57;;;;;;;0.10;0.10;;;;;;;18.27;55.24;101178.56;5013234;28;20026;-86
2023/07/28 00:50:22;;;;;;;0.10;0.10;;;;;;;18.28;55.37;101184.63;4996442;28;20507;-86
2023/07/28 00:52:49;;;;;;;0.10;0.10;;;;;;;18.03;55.54;101160.22;4996600;28;20044;-88
2023/07/28 00:55:15;;;;;;;0.10;0.10;;;;;;;18.08;55.77;101182.63;5013142;28;20032;-86
2023/07/28 00:57:40;;;;;;;0.10;0.10;;;;;;;18.06;55.96;101180.94;5012884;28;20419;-88
2023/07/28 01:00:06;;;;;;;0.10;0.10;;;;;;;18.03;56.09;101185.56;4996643;28;20029;-87
2023/07/28 01:02:31;;;;;;;0.10;0.10;;;;;;;17.94;56.21;101166.13;5012846;28;20045;-87
2023/07/28 01:04:57;;;;;;;0.20;0.20;;;;;;;17.97;56.02;101162.44;5012336;28;20029;-89
2023/07/28 01:07:32;;;;;;;0.10;0.10;;;;;;;18.04;56.24;101182.84;4996567;28;20026;-86
2023/07/28 01:10:17;;;;;;;0.10;0.10;;;;;;;17.97;56.29;101188.63;5032996;28;20033;-87
2023/07/28 01:12:43;;;;;;;0.10;0.10;;;;;;;17.89;57.00;101190.94;5033330;28;20109;-87
2023/07/28 01:15:09;;;;;;;0.10;0.10;;;;;;;17.80;56.83;101166.28;5016808;28;20036;-86
2023/07/28 01:17:34;;;;;;;0.10;0.10;;;;;;;17.91;56.70;101175.97;5033251;28;20445;-87
2023/07/28 01:20:00;;;;;;;0.10;0.10;;;;;;;17.80;57.29;101155.81;5032687;28;20029;-88
2023/07/28 01:22:47;;;;;;;0.10;0.10;;;;;;;17.85;56.73;101172.00;5016622;28;20025;-86
2023/07/28 01:25:12;;;;;;;0.10;0.10;;;;;;;17.80;57.11;101173.25;5032957;28;20032;-87
2023/07/28 01:27:42;;;;;;;0.10;0.10;;;;;;;17.69;57.63;101171.38;5032871;28;20042;-86
2023/07/28 01:30:08;;;;;;;0.10;0.10;;;;;;;17.53;57.04;101139.38;5001102;28;20116;-88
2023/07/28 01:32:33;;;;;;;0.10;0.10;;;;;;;17.78;56.87;101174.22;4999859;28;20476;-87
2023/07/28 01:34:58;;;;;;;0.10;0.10;;;;;;;17.76;56.65;101170.03;5016463;28;20034;-87
2023/07/28 01:40:08;;;;;;;0.10;0.10;;;;;;;17.75;57.11;101179.66;5018752;28;20076;-87
2023/07/28 01:42:34;;;;;;;0.10;0.10;;;;;;;17.64;57.19;101163.03;5016049;28;20057;-87
2023/07/28 01:44:59;;;;;;;0.10;0.10;;;;;;;17.71;57.45;101178.22;5032380;28;20072;-87
2023/07/28 01:47:25;;;;;;;0.10;0.10;;;;;;;17.75;57.25;101179.66;5015888;28;20044;-86
2023/07/28 01:49:50;;;;;;;0.10;0.10;;;;;;;17.64;57.36;101178.72;5016071;28;20040;-88
2023/07/28 01:52:16;;;;;;;0.10;0.10;;;;;;;17.63;57.53;101163.97;5016062;28;20053;-88
2023/07/28 01:54:41;;;;;;;0.10;0.10;;;;;;;17.66;57.25;101171.59;5015881;28;20032;-86
2023/07/28 01:57:07;;;;;;;0.10;0.10;;;;;;;17.69;57.47;101182.69;4999599;28;20026;-88
2023/07/28 01:59:32;;;;;;;0.10;0.10;;;;;;;17.57;57.60;101177.47;5015904;28;20442;-87
2023/07/28 02:01:58;;;;;;;0.10;0.10;;;;;;;17.52;57.57;101172.56;5031841;28;20033;-87
2023/07/28 02:04:23;;;;;;;0.10;0.10;;;;;;;17.41;58.06;101170.69;4999450;28;20030;-87
2023/07/28 02:06:49;;;;;;;0.10;0.10;;;;;;;17.41;57.75;101173.31;4999384;28;20068;-87
2023/07/28 02:09:14;;;;;;;0.10;0.10;;;;;;;17.38;57.91;101173.50;4999282;28;20029;-86
2023/07/28 02:11:40;;;;;;;0.10;0.10;;;;;;;17.35;58.48;101194.63;4999079;28;20029;-87
2023/07/28 02:14:05;;;;;;;0.10;0.10;;;;;;;17.19;58.80;101191.38;4999243;28;20037;-87
2023/07/28 02:16:32;;;;;;;0.10;0.10;;;;;;;17.18;58.83;101194.94;5015018;28;20029;-86
2023/07/28 02:18:57;;;;;;;0.10;0.10;;;;;;;17.16;58.85;101204.66;4999555;28;20033;-88
2023/07/28 02:21:22;;;;;;;0.10;0.10;;;;;;;16.99;59.35;101195.34;5014468;28;20385;-88
2023/07/28 02:23:49;;;;;;;0.10;0.10;;;;;;;16.93;59.78;101203.59;5015200;28;20048;-87
2023/07/28 02:26:14;;;;;;;0.10;0.10;;;;;;;16.95;59.55;101200.88;5031895;28;20056;-87
2023/07/28 02:28:39;;;;;;;0.10;0.10;;;;;;;16.87;59.60;101197.00;4999038;28;20037;-87
2023/07/28 02:31:05;;;;;;;0.20;0.10;;;;;;;16.85;59.73;101196.25;4998578;28;20026;-86
2023/07/28 02:33:33;;;;;;;0.10;0.10;;;;;;;16.84;59.89;101205.03;5015253;28;20103;-87
2023/07/28 02:35:59;;;;;;;0.10;0.10;;;;;;;16.92;59.57;101207.16;5015641;28;20029;-86
2023/07/28 02:38:24;;;;;;;0.10;0.10;;;;;;;17.00;59.45;101225.75;5015164;28;20025;-86
2023/07/28 02:40:49;;;;;;;0.10;0.10;;;;;;;16.88;60.12;101222.19;5031926;28;20026;-87
2023/07/28 02:43:15;;;;;;;0.10;0.10;;;;;;;16.82;59.51;101200.88;5031564;28;20033;-87
2023/07/28 02:45:40;;;;;;;0.10;0.10;;;;;;;16.82;60.12;101217.38;4998338;28;20026;-87
2023/07/28 02:48:06;;;;;;;0.10;0.10;;;;;;;16.84;60.31;101212.88;5031504;28;20483;-87
2023/07/28 02:50:31;;;;;;;0.10;0.10;;;;;;;16.77;60.18;101200.31;5014704;28;20403;-86
2023/07/28 02:52:57;;;;;;;0.10;0.10;;;;;;;17.00;60.59;101214.47;4998598;28;20095;-89
2023/07/28 02:55:22;;;;;;;0.10;0.10;;;;;;;17.01;59.61;101203.94;5015127;28;20084;-90
2023/07/28 02:57:47;;;;;;;0.10;0.10;;;;;;;17.16;59.70;101228.19;4998883;28;20069;-90
2023/07/28 03:00:14;;;;;;;0.10;0.10;;;;;;;17.02;59.24;101217.84;4998689;28;20478;-91
2023/07/28 03:02:39;;;;;;;0.10;0.10;;;;;;;17.02;59.53;101217.84;4999192;28;20032;-89
2023/07/28 03:05:05;;;;;;;0.10;0.10;;;;;;;17.02;59.69;101216.06;5015034;28;20022;-89
2023/07/28 03:07:31;;;;;;;0.10;0.10;;;;;;;17.21;59.11;101231.34;4998382;28;20052;-88
2023/07/28 03:09:56;;;;;;;0.10;0.10;;;;;;;17.05;59.11;101217.63;5014607;28;20411;-88
2023/07/28 03:12:22;;;;;;;0.10;0.10;;;;;;;17.08;59.32;101233.09;4998438;28;20029;-90
2023/07/28 03:14:47;;;;;;;0.10;0.10;;;;;;;17.07;59.25;101231.41;4997920;28;20044;-88
2023/07/28 03:17:13;;;;;;;0.10;0.10;;;;;;;17.06;59.15;101230.59;5030977;28;20406;-89
2023/07/28 03:19:38;;;;;;;0.10;0.10;;;;;;;17.02;59.50;101229.13;5014576;28;20431;-88
2023/07/28 03:22:04;;;;;;;0.10;0.10;;;;;;;16.98;59.86;101232.03;4998086;28;20758;-87
2023/07/28 03:24:29;;;;;;;0.20;0.20;;;;;;;17.06;59.59;101234.97;5014257;28;20029;-90
2023/07/28 03:26:55;;;;;;;0.10;0.10;;;;;;;16.94;60.53;101241.03;5014433;28;20029;-89
2023/07/28 03:29:21;;;;;;;0.20;0.20;;;;;;;16.87;60.32;101233.56;5014018;28;20403;-88
2023/07/28 03:31:46;;;;;;;0.47;0.30;;;;;;;16.98;60.15;101238.09;5030327;28;20026;-89
2023/07/28 03:34:12;;;;;;;0.10;0.10;;;;;;;16.97;60.60;101248.66;5030881;28;20407;-90
2023/07/28 03:36:37;;;;;;;0.10;0.10;;;;;;;16.91;60.56;101242.91;5030460;28;20044;-90
2023/07/28 03:39:03;;;;;;;0.10;0.10;;;;;;;16.99;60.26;101242.38;5013812;28;20025;-88
2023/07/28 03:41:28;;;;;;;0.15;0.15;;;;;;;16.96;59.77;101228.69;5014489;28;20480;-90
2023/07/28 03:43:54;;;;;;;0.30;0.20;;;;;;;16.95;59.98;101227.00;5014280;28;20449;-89
2023/07/28 03:46:19;;;;;;;0.20;0.20;;;;;;;17.10;60.06;101263.41;4981889;28;20553;-88
2023/07/28 03:48:45;;;;;;;0.10;0.10;;;;;;;17.17;59.84;101256.00;5010148;28;20463;-89
2023/07/28 03:51:10;;;;;;;0.10;0.10;;;;;;;17.17;59.64;101264.69;5010113;28;20050;-88
2023/07/28 03:53:36;;;;;;;0.10;0.10;;;;;;;17.03;60.12;101249.09;4977768;28;20029;-87
2023/07/28 03:56:02;;;;;;;0.10;0.10;;;;;;;17.00;60.45;101254.50;4994390;28;20021;-87
2023/07/28 03:58:27;;;;;;;0.20;0.20;;;;;;;16.92;61.17;101244.59;4993750;28;20037;-90
2023/07/28 04:00:53;;;;;;;0.10;0.10;;;;;;;17.18;60.23;101261.13;4994169;28;20026;-89
2023/07/28 04:03:19;;;;;;;0.10;0.10;;;;;;;17.32;60.23;101252.38;4994494;28;20037;-89
2023/07/28 04:05:44;;;;;;;0.10;0.10;;;;;;;17.90;57.87;101264.16;4994311;28;20555;-90
2023/07/28 04:08:10;;;;;;;0.20;0.20;;;;;;;18.81;55.31;101256.75;4985627;28;20030;-93
2023/07/28 04:10:37;;;;;;;0.10;0.10;;;;;;;18.75;55.22;101256.38;5012756;28;20045;-93
2023/07/28 04:13:02;;;;;;;0.20;0.20;;;;;;;18.95;54.91;101252.28;5020074;28;20044;-93
2023/07/28 04:15:30;;;;;;;0.20;0.20;;;;;;;19.50;53.24;101251.59;5026390;28;20030;-93
2023/07/28 04:17:55;;;;;;;0.10;0.10;;;;;;;19.64;52.38;101254.00;5023657;28;20039;-93
2023/07/28 04:20:24;;;;;;;0.10;0.10;;;;;;;19.73;51.95;101250.69;5015037;28;20029;-94
2023/07/28 04:22:50;;;;;;;0.10;0.10;;;;;;;19.29;52.15;101224.38;5036182;28;20034;-94
2023/07/28 04:25:16;;;;;;;0.10;0.10;;;;;;;19.12;53.25;101238.75;5012002;28;20091;-86
2023/07/28 04:27:41;;;;;;;0.10;0.10;;;;;;;19.18;53.21;101254.03;5013062;28;20176;-93
2023/07/28 04:30:08;;;;;;;0.10;0.10;;;;;;;19.02;53.34;101262.19;5043882;28;20021;-88
2023/07/28 04:32:34;;;;;;;0.10;0.10;;;;;;;18.72;54.37;101248.72;5041808;28;20036;-90
2023/07/28 04:35:00;;;;;;;0.10;0.10;;;;;;;18.62;54.68;101252.00;5051136;28;20475;-88
2023/07/28 04:37:26;;;;;;;0.20;0.20;;;;;;;18.56;54.45;101255.03;5049241;28;20025;-90
2023/07/28 04:39:53;;;;;;;0.10;0.10;;;;;;;18.55;54.59;101253.38;5029252;28;20050;-89
2023/07/28 04:42:18;;;;;;;0.10;0.10;;;;;;;18.54;54.76;101259.56;5031263;28;20491;-92
2023/07/28 04:44:45;;;;;;;0.10;0.10;;;;;;;18.46;55.82;101264.53;5012508;28;20045;-89
2023/07/28 04:47:11;;;;;;;0.10;0.10;;;;;;;18.43;56.12;101253.44;5003936;28;20092;-88
2023/07/28 04:49:36;;;;;;;0.10;0.10;;;;;;;18.27;56.12;101224.88;5046252;28;20509;-88
2023/07/28 04:52:03;;;;;;;0.10;0.10;;;;;;;18.18;56.29;101220.28;5048571;28;20064;-84
2023/07/28 04:54:28;;;;;;;0.10;0.10;;;;;;;18.48;56.59;101251.31;5049145;28;20028;-87
2023/07/28 04:56:55;;;;;;;0.10;0.10;;;;;;;18.53;55.46;101246.59;5050629;28;20025;-89
2023/07/28 04:59:21;;;;;;;0.10;0.10;;;;;;;18.80;54.89;101249.00;5050401;28;20084;-82
2023/07/28 05:01:46;;;;;;;0.10;0.10;;;;;;;18.90;55.89;101245.59;5049328;28;20025;-87
2023/07/28 05:04:12;;;;;;;0.10;0.10;;;;;;;18.88;54.33;101251.91;5033042;28;20087;-93
2023/07/28 05:06:38;;;;;;;0.10;0.10;;;;;;;18.90;53.94;101239.53;5037486;28;20048;-92
2023/07/28 05:09:04;;;;;;;0.10;0.10;;;;;;;18.97;53.88;101251.19;5029462;28;20032;-91
2023/07/28 05:11:29;;;;;;;0.20;0.20;;;;;;;19.04;55.66;101239.31;5014143;28;20040;-88
2023/07/28 05:13:55;;;;;;;0.10;0.10;;;;;;;19.11;55.89;101253.66;5022492;28;20061;-85
2023/07/28 05:16:20;;;;;;;0.10;0.10;;;;;;;19.08;53.91;101248.66;5009653;28;20057;-92
2023/07/28 05:18:46;;;;;;;0.10;0.10;;;;;;;19.08;53.40;101225.03;4993578;28;20037;-89
2023/07/28 05:21:12;;;;;;;0.10;0.10;;;;;;;19.10;54.82;101236.25;5026330;28;20376;-91
2023/07/28 05:23:38;;;;;;;0.10;0.10;;;;;;;19.07;52.97;101241.69;5030026;28;20499;-87
2023/07/28 05:26:04;;;;;;;0.10;0.10;;;;;;;18.92;52.94;101243.69;5028374;28;20037;-92
2023/07/28 05:28:34;;;;;;;0.10;0.10;;;;;;;19.11;53.56;101247.56;5052428;28;20651;-90
2023/07/28 05:31:06;;;;;;;0.10;0.10;;;;;;;19.14;53.42;101237.69;5028002;28;20125;-87
2023/07/28 05:33:31;;;;;;;0.10;0.10;;;;;;;19.07;52.96;101196.28;5031116;28;20025;-83
2023/07/28 05:36:04;;;;;;;0.10;0.10;;;;;;;19.45;52.92;101240.59;5025149;28;20064;-89
2023/07/28 05:38:29;;;;;;;0.10;0.10;;;;;;;19.60;52.38;101223.72;5028721;28;20053;-85
2023/07/28 05:41:03;;;;;;;0.10;0.10;;;;;;;19.94;52.64;101237.66;5034578;28;20522;-86
2023/07/28 05:43:29;;;;;;;0.20;0.20;;;;;;;19.88;51.22;101234.69;5048425;28;20049;-84
2023/07/28 05:45:56;;;;;;;0.10;0.10;;;;;;;19.71;51.13;101230.75;5031861;28;20391;-87
2023/07/28 05:48:22;;;;;;;0.10;0.10;;;;;;;19.87;54.42;101215.50;5048380;28;20029;-85
2023/07/28 05:50:47;;;;;;;0.10;0.10;;;;;;;20.04;51.16;101201.84;5015450;28;20153;-87
2023/07/28 05:53:13;;;;;;;0.10;0.10;;;;;;;20.28;50.50;101230.59;5032701;28;20043;-94
2023/07/28 05:55:39;;;;;;;0.10;0.10;;;;;;;20.32;52.54;101221.47;5034347;28;20021;-86
2023/07/28 05:58:05;;;;;;;0.10;0.10;;;;;;;20.18;53.06;101210.44;5025836;28;20123;-86
2023/07/28 06:00:31;;;;;;;0.10;0.10;;;;;;;20.35;52.35;101225.66;5015736;28;20117;-88
2023/07/28 06:02:57;;;;;;;0.10;0.10;;;;;;;20.07;52.70;101198.16;5010915;28;20084;-85
2023/07/28 06:05:23;;;;;;;0.10;0.10;;;;;;;20.19;52.75;101228.69;5028531;28;20034;-89
2023/07/28 06:07:48;;;;;;;0.10;0.10;;;;;;;20.07;53.12;101221.78;5030398;28;20106;-89
2023/07/28 06:10:14;;;;;;;0.10;0.10;;;;;;;20.13;53.90;101223.91;5028535;28;20038;-88
2023/07/28 06:12:39;;;;;;;0.10;0.10;;;;;;;20.15;53.18;101227.25;5012997;28;20037;-90
2023/07/28 06:15:07;;;;;;;0.10;0.10;;;;;;;20.24;54.09;101226.50;5006922;28;20030;-90
2023/07/28 06:17:33;;;;;;;0.10;0.10;;;;;;;20.33;54.12;101220.53;5020593;28;20021;-89
2023/07/28 06:19:58;;;;;;;0.10;0.10;;;;;;;20.47;53.09;101208.13;5024874;28;20103;-87
2023/07/28 06:22:24;;;;;;;0.10;0.10;;;;;;;20.67;54.13;101217.00;5026212;28;20451;-92
2023/07/28 06:24:50;;;;;;;0.10;0.10;;;;;;;20.79;52.81;101224.72;5031861;28;20103;-87
2023/07/28 06:27:16;;;;;;;0.10;0.10;;;;;;;20.94;52.29;101216.50;5031227;28;20025;-92
2023/07/28 06:29:41;;;;;;;0.10;0.10;;;;;;;20.89;51.40;101217.72;5029994;28;20121;-87
2023/07/28 06:32:08;;;;;;;0.20;0.20;;;;;;;21.24;51.78;101227.09;5045012;28;20037;-92
2023/07/28 06:34:34;;;;;;;0.10;0.10;;;;;;;21.20;49.78;101221.25;5048085;28;20060;-86
2023/07/28 06:36:59;;;;;;;0.20;0.20;;;;;;;21.24;51.46;101228.88;5036041;28;20052;-85
2023/07/28 06:39:25;;;;;;;0.10;0.10;;;;;;;21.15;52.36;101225.25;5034229;28;20040;-83
2023/07/28 06:41:50;;;;;;;0.10;0.10;;;;;;;20.98;51.88;101225.81;4999931;28;20030;-87
2023/07/28 06:44:17;;;;;;;0.10;0.10;;;;;;;21.15;51.52;101235.78;5011708;28;20041;-89
2023/07/28 06:46:42;;;;;;;0.10;0.10;;;;;;;21.26;51.99;101245.41;5011871;28;20026;-87
2023/07/28 06:49:08;;;;;;;0.10;0.10;;;;;;;21.27;51.22;101241.84;5016376;28;20079;-88
2023/07/28 06:51:34;;;;;;;0.20;0.20;;;;;;;21.43;51.27;101229.88;5003458;28;20121;-87
2023/07/28 06:54:00;;;;;;;0.10;0.10;;;;;;;21.69;49.97;101238.16;5036406;28;20487;-88
2023/07/28 06:56:25;;;;;;;0.20;0.20;;;;;;;21.77;49.65;101245.41;5031070;28;20041;-86
2023/07/28 06:58:51;;;;;;;0.10;0.10;;;;;;;21.58;49.72;101226.91;5014754;28;20483;-85
2023/07/28 07:01:17;;;;;;;0.10;0.10;;;;;;;22.08;49.69;101238.34;5030859;28;20025;-87
2023/07/28 07:03:43;;;;;;;0.10;0.10;;;;;;;22.07;49.66;101220.88;5031547;28;20117;-93
2023/07/28 07:06:09;;;;;;;0.10;0.10;;;;;;;22.12;49.82;101236.25;5015154;28;20124;-91
2023/07/28 07:08:35;;;;;;;0.15;0.15;;;;;;;22.16;49.07;101227.97;5034207;28;20057;-87
2023/07/28 07:11:01;;;;;;;0.10;0.10;;;;;;;22.22;49.04;101231.84;5031043;28;20034;-88
2023/07/28 07:13:27;;;;;;;0.15;0.15;;;;;;;22.32;47.98;101254.63;5030568;28;20044;-90
2023/07/28 07:15:53;;;;;;;0.13;0.13;;;;;;;22.36;47.90;101247.28;5026523;28;20037;-89
2023/07/28 07:18:19;;;;;;;0.10;0.10;;;;;;;22.29;47.18;101243.50;5011434;28;20045;-90
2023/07/28 07:20:44;;;;;;;0.20;0.20;;;;;;;22.46;47.50;101228.84;5021212;28;20033;-88
2023/07/28 07:23:10;;;;;;;0.10;0.10;;;;;;;22.57;46.35;101240.09;5030613;28;20032;-93
2023/07/28 07:25:36;;;;;;;0.10;0.10;;;;;;;22.65;46.33;101234.13;5043580;28;20029;-90
2023/07/28 07:28:01;;;;;;;0.10;0.10;;;;;;;22.95;47.12;101246.38;5034116;28;20076;-89
2023/07/28 07:30:27;;;;;;;0.10;0.10;;;;;;;23.31;46.36;101244.81;5015604;28;20411;-91
2023/07/28 07:32:53;;;;;;;0.20;0.20;;;;;;;23.46;45.07;101239.88;5030595;28;20065;-85
2023/07/28 07:35:19;;;;;;;0.10;0.10;;;;;;;23.50;43.04;101246.56;5029118;28;20083;-86
2023/07/28 07:37:45;;;;;;;0.10;0.10;;;;;;;23.49;40.47;101229.03;5029186;28;20095;-86
2023/07/28 07:40:11;;;;;;;0.20;0.20;;;;;;;23.75;41.34;101253.84;5030039;28;20660;-88
2023/07/28 07:42:45;;;;;;;0.20;0.20;;;;;;;24.01;39.57;101238.16;5029968;28;20088;-93
2023/07/28 07:45:11;;;;;;;0.10;0.10;;;;;;;24.33;41.14;101249.28;5031352;28;20031;-90
2023/07/28 07:47:39;;;;;;;0.10;0.10;;;;;;;24.50;40.94;101240.53;5031994;28;20021;-91
2023/07/28 07:50:06;;;;;;;0.10;0.10;;;;;;;24.40;38.87;101214.16;5013199;28;20434;-88
2023/07/28 07:52:32;;;;;;;0.10;0.10;;;;;;;24.55;38.72;101227.69;5030374;28;20108;-89
2023/07/28 07:54:58;;;;;;;0.10;0.10;;;;;;;24.82;39.14;101235.53;5029963;28;20037;-88
2023/07/28 07:57:24;;;;;;;0.20;0.20;;;;;;;24.85;36.21;101216.69;5028450;28;20112;-86
2023/07/28 07:59:50;;;;;;;0.10;0.10;;;;;;;24.98;36.55;101228.72;5028531;28;20035;-88
2023/07/28 08:02:16;;;;;;;0.10;0.10;;;;;;;25.03;36.35;101234.41;5013046;28;20029;-92
2023/07/28 08:04:43;;;;;;;0.10;0.10;;;;;;;25.08;35.19;101245.38;5040389;28;20030;-88
2023/07/28 08:07:08;;;;;;;0.10;0.10;;;;;;;25.11;33.67;101242.41;5009980;28;20034;-86
2023/07/28 08:09:34;;;;;;;0.10;0.10;;;;;;;25.08;33.06;101214.44;5048202;28;20048;-88
2023/07/28 08:12:00;;;;;;;0.10;0.10;;;;;;;25.14;32.62;101239.44;5048900;28;20033;-87
2023/07/28 08:14:25;;;;;;;0.10;0.10;;;;;;;25.09;32.58;101221.38;4999325;28;20121;-87
2023/07/28 08:16:51;;;;;;;0.10;0.10;;;;;;;25.35;31.01;101228.47;5002890;28;20495;-92
2023/07/28 08:19:16;;;;;;;0.20;0.20;;;;;;;25.48;33.81;101222.78;5031842;28;20041;-87
2023/07/28 08:21:42;;;;;;;0.17;0.17;;;;;;;25.79;31.69;101231.91;5004168;28;20075;-91
2023/07/28 08:24:08;;;;;;;0.10;0.10;;;;;;;26.00;31.38;101232.31;5014345;28;20025;-88
2023/07/28 08:26:34;;;;;;;0.10;0.10;;;;;;;26.09;32.15;101227.88;5033023;28;20522;-88
2023/07/28 08:28:59;;;;;;;0.20;0.20;;;;;;;26.19;33.74;101230.38;5034156;28;20037;-90
2023/07/28 08:31:26;;;;;;;0.20;0.20;;;;;;;26.52;30.85;101239.25;5023388;28;20026;-92
2023/07/28 08:33:53;;;;;;;0.10;0.10;;;;;;;26.45;32.28;101224.97;5023103;28;20037;-94
2023/07/28 08:36:19;;;;;;;0.20;0.20;;;;;;;26.49;33.16;101227.13;5063073;28;20059;-89
2023/07/28 08:38:46;;;;;;;0.10;0.10;;;;;;;26.51;34.11;101219.84;5041292;28;20052;-93
2023/07/28 08:41:13;;;;;;;0.10;0.10;;;;;;;26.33;34.05;101205.84;5033658;28;20030;-94
2023/07/28 08:43:39;;;;;;;0.17;0.17;;;;;;;26.60;33.88;101218.03;4995758;28;20025;-94
2023/07/28 08:46:06;;;;;;;0.20;0.20;;;;;;;26.68;34.19;101222.53;5019459;28;20514;-93
2023/07/28 08:48:32;;;;;;;0.20;0.20;;;;;;;26.74;34.63;101217.34;5019292;28;20033;-94
2023/07/28 08:51:02;;;;;;;0.20;0.20;;;;;;;26.86;34.23;101224.00;5035125;28;20135;-93
2023/07/28 08:53:27;;;;;;;0.20;0.20;;;;;;;27.03;35.37;101214.22;5018581;28;20060;-86
2023/07/28 08:55:53;;;;;;;0.20;0.20;;;;;;;27.09;34.71;101215.38;5031268;28;20556;-90
2023/07/28 08:58:24;;;;;;;0.20;0.20;;;;;;;27.22;35.30;101209.53;5045446;28;20486;-92
2023/07/28 09:00:50;;;;;;;0.20;0.20;;;;;;;27.43;32.59;101210.66;5002480;28;20048;-88
2023/07/28 09:03:19;;;;;;;0.20;0.20;;;;;;;27.42;31.71;101210.81;5029205;28;20033;-88
2023/07/28 09:05:46;;;;;;;0.20;0.20;;;;;;;27.50;32.86;101204.66;5012815;28;20037;-88
2023/07/28 09:08:12;;;;;;;0.10;0.10;;;;;;;27.64;31.65;101207.44;5028920;28;20084;-89
2023/07/28 09:10:45;;;;;;;0.20;0.20;;;;;;;27.76;31.24;101215.06;5011696;28;20553;-88
2023/07/28 09:13:14;;;;;;;0.20;0.20;;;;;;;27.80;29.84;101205.72;5029740;28;20021;-93
2023/07/28 09:15:40;;;;;;;0.20;0.20;;;;;;;27.85;28.64;101192.75;5011905;28;20064;-90
2023/07/28 09:18:12;;;;;;;0.20;0.20;;;;;;;28.04;29.30;101194.16;5026959;28;20030;-86
2023/07/28 09:20:38;;;;;;;0.10;0.10;;;;;;;28.08;30.49;101193.63;5010874;28;20030;-92
2023/07/28 09:23:05;;;;;;;0.20;0.20;;;;;;;28.05;28.66;101193.97;5006963;28;20041;-92
2023/07/28 09:25:31;;;;;;;0.20;0.20;;;;;;;28.09;28.68;101189.94;5026999;28;20100;-91
2023/07/28 09:27:57;;;;;;;0.20;0.20;;;;;;;28.19;29.74;101195.88;5018791;28;20026;-92
2023/07/28 09:30:23;;;;;;;0.20;0.20;;;;;;;28.14;27.29;101190.25;5013935;28;20024;-90
2023/07/28 09:32:49;;;;;;;0.20;0.20;;;;;;;28.22;28.11;101187.56;5029326;28;20041;-91
2023/07/28 09:35:15;;;;;;;0.20;0.20;;;;;;;28.34;28.64;101176.53;5007585;28;20018;-93
2023/07/28 09:37:42;;;;;;;0.20;0.20;;;;;;;28.53;27.87;101176.03;5015651;28;20280;-90
2023/07/28 09:40:12;;;;;;;0.20;0.20;;;;;;;28.67;30.19;101177.06;5003863;28;20036;-91
2023/07/28 09:42:49;;;;;;;0.20;0.20;;;;;;;28.89;29.83;101180.72;5001934;28;20187;-93
2023/07/28 09:45:18;;;;;;;0.15;0.15;;;;;;;28.91;28.94;101157.41;4999793;28;20076;-91
2023/07/28 09:47:50;;;;;;;0.20;0.20;;;;;;;29.07;27.42;101175.88;4997519;28;20030;-90
2023/07/28 09:50:16;;;;;;;0.20;0.20;;;;;;;28.91;28.66;101152.94;4980810;28;20064;-89
2023/07/28 09:52:43;;;;;;;0.20;0.20;;;;;;;29.27;27.75;101168.19;4980348;28;20025;-87
2023/07/28 09:55:10;;;;;;;0.20;0.20;;;;;;;29.22;26.32;101166.06;5034695;28;20168;-87
2023/07/28 09:57:55;;;;;;;0.20;0.20;;;;;;;29.34;27.66;101167.25;5036308;28;20021;-91
2023/07/28 10:00:22;;;;;;;0.20;0.20;;;;;;;29.46;26.58;101161.47;5049247;28;20057;-91
2023/07/28 10:02:48;;;;;;;0.20;0.20;;;;;;;29.58;26.79;101154.66;5035701;28;20029;-89
2023/07/28 10:05:15;;;;;;;0.20;0.20;;;;;;;29.64;26.91;101140.59;5051437;28;20123;-92
2023/07/28 10:07:41;;;;;;;0.20;0.20;;;;;;;29.69;26.85;101135.50;5050769;28;20108;-86
2023/07/28 10:10:09;;;;;;;0.20;0.20;;;;;;;29.79;26.51;101125.38;5034917;28;20033;-88
2023/07/28 10:12:51;;;;;;;0.20;0.20;;;;;;;29.88;27.55;101140.25;5019678;28;20033;-89
2023/07/28 10:15:21;;;;;;;0.20;0.20;;;;;;;30.09;27.46;101130.63;4996679;28;20125;-91
2023/07/28 10:17:54;;;;;;;0.20;0.20;;;;;;;30.38;26.97;101135.81;5010159;28;20026;-87
2023/07/28 10:20:31;;;;;;;0.20;0.20;;;;;;;30.46;26.17;101137.53;5031990;28;20438;-94
2023/07/28 10:23:05;;;;;;;0.20;0.20;;;;;;;30.42;25.46;101128.28;5038551;28;20045;-90
2023/07/28 10:25:37;;;;;;;0.20;0.20;;;;;;;30.43;25.46;101125.41;5042193;28;20791;-86
2023/07/28 10:28:05;;;;;;;0.20;0.20;;;;;;;30.52;25.61;101126.09;5034348;28;20057;-93
2023/07/28 10:30:36;;;;;;;0.20;0.20;;;;;;;30.33;25.51;101116.91;5037129;28;20028;-91
2023/07/28 10:33:02;;;;;;;0.20;0.20;;;;;;;30.25;26.30;101114.38;5037113;28;20712;-93
2023/07/28 10:35:30;;;;;;;0.20;0.20;;;;;;;30.42;25.37;101115.75;5037292;28;20095;-92
2023/07/28 10:37:57;;;;;;;0.20;0.20;;;;;;;30.49;27.07;101111.28;5017591;28;20060;-93
2023/07/28 10:40:32;;;;;;;0.20;0.20;;;;;;;30.56;25.97;101116.66;5017363;28;20079;-93
2023/07/28 10:42:58;;;;;;;0.20;0.20;;;;;;;30.51;25.71;101103.09;5033542;28;20544;-87
2023/07/28 10:45:25;;;;;;;0.20;0.20;;;;;;;30.42;25.98;101105.06;5049888;28;20043;-89
2023/07/28 10:47:51;;;;;;;0.20;0.20;;;;;;;30.63;26.33;101114.06;5034971;28;20033;-88
2023/07/28 10:50:18;;;;;;;0.20;0.20;;;;;;;30.78;25.82;101110.31;4997315;28;20500;-87
2023/07/28 10:52:44;;;;;;;0.20;0.20;;;;;;;30.85;26.14;101088.94;5011699;28;20022;-87
2023/07/28 10:55:16;;;;;;;0.20;0.20;;;;;;;31.07;25.30;101106.56;5030698;28;20066;-85
2023/07/28 10:57:43;;;;;;;0.20;0.20;;;;;;;31.02;25.16;101092.97;5052873;28;20490;-89
2023/07/28 11:00:09;;;;;;;0.20;0.20;;;;;;;30.95;26.22;101084.06;4999577;28;20037;-86
2023/07/28 11:02:40;;;;;;;0.20;0.20;;;;;;;31.25;25.64;101083.84;5016428;28;20072;-90
2023/07/28 11:05:09;;;;;;;0.20;0.20;;;;;;;31.42;25.39;101090.50;5015980;28;20116;-87
2023/07/28 11:07:34;;;;;;;0.20;0.20;;;;;;;31.48;25.09;101062.97;5014924;28;20512;-85
2023/07/28 11:10:01;;;;;;;0.20;0.20;;;;;;;31.69;24.93;101086.88;5031362;28;20026;-89
2023/07/28 11:12:27;;;;;;;0.20;0.20;;;;;;;31.56;24.83;101084.16;4998826;28;20133;-91
2023/07/28 11:14:52;;;;;;;0.20;0.20;;;;;;;31.66;25.13;101073.06;5041789;28;20348;-90
2023/07/28 11:17:17;;;;;;;0.20;0.20;;;;;;;31.79;24.90;101070.47;5030047;28;20029;-91
2023/07/28 11:19:43;;;;;;;0.20;0.20;;;;;;;31.81;24.86;101059.56;5030753;28;20029;-88
2023/07/28 11:22:08;;;;;;;0.20;0.20;;;;;;;31.86;25.08;101067.81;5018416;28;20053;-87
2023/07/28 11:24:34;;;;;;;0.20;0.20;;;;;;;31.98;24.64;101054.63;5034105;28;20044;-91